Terminal Aerodrome Forecast
Issued by NWS Cleveland, OH

Home | Current Version | Previous Version | Graphics & Text | Print | Product List | Glossary On
Versions: 1 2 3 4 5 6 7 8 9 10 11 12 13 14 15 16 17 18 19 20 21 22 23 24
000
FTUS41 KCLE 280500 RRA
TAFERI
TAF
KERI 280547Z 2806/2906 10005KT P6SM OVC012
     FM280800 30010KT 6SM -SHRA OVC012
      TEMPO 2808/2810 2SM +SHRA BR OVC008
     FM281000 33012KT 4SM -SHRA BR OVC008
      TEMPO 2810/2814 1SM +SHRA BR OVC012
     FM281800 34014G22KT P6SM VCSH OVC015
     FM290000 32010KT P6SM BKN025=

USA.gov is the U.S. government's official web portal to all federal, state and local government web resources and services.